AirNav   Air Wisconsin pilot careers
 
 647 users online  

19TN Ferraraccio Field Airport
Clarksville, Tennessee, USA

GOING TO CLARKSVILLE?


FAA INFORMATION EFFECTIVE 16 AUGUST 2018

Location

FAA Identifier: 19TN
Lat/Long: 36-29-58.0000N / 087-11-25.0000W
36-29.966667N / 087-11.416667W
36.4994444 / -87.1902778
(estimated)
Elevation: 620 ft. / 189 m (estimated)
From city: 8 miles SE of CLARKSVILLE, TN
Time zone: UTC -5 (UTC -6 during Standard Time)
Zip code: 37043

Airport Operations

Airport use: Private use. Permission required prior to landing
Activation date: 09/2004
Control tower: no
ARTCC: MEMPHIS CENTER
FSS: JACKSON FLIGHT SERVICE STATION
Attendance: UNATNDD
Segmented circle: no

Airport Communications

WX ASOS at CKV (13 nm NW): 134.575 (931-431-3045)
WX AWOS-3 at M91 (13 nm E): 120.675 (615-384-8206)
WX AWOS-3 at EOD (15 nm W): PHONE 270-956-3100

Nearby radio navigation aids

VOR radial/distance  VOR name  Freq  Var
CKVr125/13.0CLARKSVILLE VOR/DME110.6001W
BNAr314/32.7NASHVILLE VORTAC114.1002W

 
NDB name  Hdg/Dist  Freq  Var  ID
SNUFF101/9.633501WCK -.-. -.-
DICKSON029/25.220301WDMZ -.. -- --..

Airport Services

Runway Information

Runway 8/26

Dimensions: 2200 x 40 ft. / 671 x 12 m
Surface: turf
RUNWAY 8  RUNWAY 26
Traffic pattern: leftleft

Airport Ownership and Management from official FAA records

Ownership: Privately-owned
Owner: CHRIS & ANNA FERRARACCIO
197 BAGWELL ROAD
CLARKSVILLE, TN 37043
Phone 931-302-4985
Manager: CHRIS FERRARACCIO
197 BAGWELL ROAD
CLARKSVILLE, TN 37043
Phone 931-302-4985

Airport Operational Statistics

Aircraft based on the field: 1
Single engine airplanes: 1
    

Instrument Procedures

There are no published instrument procedures at 19TN.

Some nearby airports with instrument procedures:

KCKV - Outlaw Field Airport (13 nm NW)
M91 - Springfield Robertson County Airport (13 nm E)
KEOD - Sabre Army Airfield (Fort Campbell) (15 nm W)
KHOP - Campbell Army Airfield (Fort Campbell) (18 nm NW)
KJWN - John C Tune Airport (24 nm SE)
 
Loc | Ops | Rwys | IFR | FBO | Links
Com | Nav | Svcs | Stats | Notes


 
Area around 19TN (Ferraraccio Field Airport)
 
Road maps at: MapQuest Bing Google
 
Aerial photo
WARNING: Photo may not be current or correct
Aerial photo of 19TN (Ferraraccio Field Airport)
Photo taken 26-Sep-2006

Do you have a better or more recent aerial photo of Ferraraccio Field Airport that you would like to share? If so, please send us your photo.

 
Sectional chart

 
Airport distance calculator
Flying to Ferraraccio Field Airport? Find the distance to fly.

From to 19TN

Sunrise and sunset
Times for 21-Aug-2018
 Local
(UTC-5)
 Zulu
(UTC)
Morning civil twilight05:4510:45
Sunrise06:1211:12
Sunset19:3200:32
Evening civil twilight19:5900:59

Current date and time
Zulu (UTC)  21-Aug-2018 11:11:53
Local (UTC-5)  21-Aug-2018 06:11:53
 
METAR
KCKV 
13nm NW 
211052Z AUTO 21008KT 10SM FEW013 SCT043 BKN075 22/20 A2990 RMK AO2 SLP119 T02220200 $
KM91 
13nm E 
211055Z AUTO 21006KT 10SM FEW019 BKN055 OVC075 22/21 A2990 RMK A01
KEOD 
15nm W 
211058Z AUTO 21008KT 9SM FEW015 BKN080 22/21 A2990 RMK AO2 SLP122
KHOP 
18nm NW 
211059Z AUTO 21007KT 10SM SCT011 22/22 A2990 RMK AO2 SLP122
KJWN 
24nm SE 
211055Z AUTO 20007KT 10SM OVC022 23/21 A2990 RMK A01
KM02 
25nm SW 
211055Z AUTO 23007KT 10SM BKN010 BKN014 OVC019 22/20 A2993 RMK A01
TAF
KCKV 
13nm NW 
210520Z 2106/2206 22007KT P6SM VCSH SCT020 BKN080 FM210800 23006KT 5SM BR OVC030 FM211300 26013KT P6SM BKN040 FM220300 30005KT P6SM BKN030
KHOP 
18nm NW 
210800Z 2108/2214 25009KT 9999 OVC025 QNH2986INS TEMPO 2109/2112 8000 -SHRA BECMG 2113/2114 27012G18KT 9999 BKN020 QNH2988INS BECMG 2122/2123 30012KT 9999 BKN020 QNH2992INS WND 33009KT AFT 2203 TEMPO 2207/2212 6000 BR BECMG 2213/2214 36012KT 9999 SCT030 QNH3004INS TX29/2121Z TN18/2208Z
NOTAMs
Click for the latest NOTAMs
NOTAMs are issued by the DoD/FAA and will open in a separate window not controlled by AirNav.

 

 
 

Would you like to see your business listed on this page?

 If your business provides an interesting product or service to pilots, flight crews, aircraft, or users of the Ferraraccio Field Airport, you should consider listing it here.  To start the listing process, click on the button below
 
Add a business
 

Other Pages about Ferraraccio Field Airport

Update a link
 
Copyright © AirNav, LLC. All rights reserved. Privacy Policy  Contact